TimeEST,TemperatureF,Dew PointF,Humidity,Sea Level PressureIn,VisibilityMPH,Wind Direction,Wind SpeedMPH,Gust SpeedMPH,PrecipitationIn,Events,Conditions,WindDirDegrees,DateUTC
12:53 AM,64.9,63.0,93,30.18,10.0,NE,5.8,-,N/A,,Clear,50,2012-12-03 05:53:00
1:53 AM,64.9,64.0,97,30.18,10.0,NE,5.8,-,N/A,,Clear,50,2012-12-03 06:53:00
2:53 AM,64.0,64.0,100,30.17,10.0,NE,5.8,-,N/A,,Clear,50,2012-12-03 07:53:00
3:53 AM,64.0,63.0,96,30.17,10.0,NE,4.6,-,N/A,,Clear,50,2012-12-03 08:53:00
4:53 AM,63.0,63.0,100,30.18,10.0,NE,3.5,-,N/A,,Clear,40,2012-12-03 09:53:00
5:53 AM,63.0,62.1,97,30.18,10.0,NE,5.8,-,N/A,,Clear,40,2012-12-03 10:53:00
6:53 AM,63.0,62.1,97,30.21,10.0,NE,5.8,-,N/A,,Clear,40,2012-12-03 11:53:00
7:53 AM,64.9,63.0,93,30.23,9.0,NE,6.9,-,N/A,,Clear,40,2012-12-03 12:53:00
8:53 AM,69.1,64.0,84,30.23,10.0,ENE,8.1,-,N/A,,Clear,60,2012-12-03 13:53:00
9:53 AM,75.0,64.0,69,30.24,10.0,ENE,12.7,-,N/A,,Clear,70,2012-12-03 14:53:00
10:53 AM,79.0,63.0,58,30.23,10.0,ENE,11.5,-,N/A,,Clear,60,2012-12-03 15:53:00
11:53 AM,80.1,57.0,45,30.21,10.0,ENE,12.7,19.6,N/A,,Partly Cloudy,70,2012-12-03 16:53:00
12:53 PM,81.0,60.1,49,30.18,10.0,NNE,10.4,17.3,N/A,,Scattered Clouds,30,2012-12-03 17:53:00
1:53 PM,82.0,59.0,45,30.16,10.0,NE,8.1,-,N/A,,Scattered Clouds,40,2012-12-03 18:53:00
2:53 PM,81.0,59.0,47,30.14,10.0,ENE,8.1,-,N/A,,Partly Cloudy,70,2012-12-03 19:53:00
3:53 PM,79.0,57.9,48,30.14,10.0,ESE,4.6,-,N/A,,Mostly Cloudy,110,2012-12-03 20:53:00
4:53 PM,73.9,64.9,73,30.15,10.0,West,4.6,-,N/A,,Overcast,270,2012-12-03 21:53:00
5:53 PM,73.0,64.0,73,30.17,10.0,Calm,Calm,-,N/A,,Scattered Clouds,0,2012-12-03 22:53:00
6:53 PM,69.1,55.0,61,30.18,10.0,NE,6.9,-,N/A,,Clear,50,2012-12-03 23:53:00
7:53 PM,66.0,55.9,70,30.20,10.0,ENE,6.9,-,N/A,,Clear,60,2012-12-04 00:53:00
8:53 PM,64.9,55.9,73,30.21,10.0,ENE,6.9,-,N/A,,Clear,60,2012-12-04 01:53:00
9:53 PM,64.0,55.0,73,30.21,10.0,NE,4.6,-,N/A,,Clear,50,2012-12-04 02:53:00
10:53 PM,62.1,55.0,78,30.21,10.0,ENE,3.5,-,N/A,,Clear,70,2012-12-04 03:53:00
11:53 PM,61.0,55.0,81,30.20,10.0,NE,4.6,-,N/A,,Clear,50,2012-12-04 04:53:00